Portada
METAR-TAF:

METAR-TAF

Aeropuertos :

Pointe-à-Pitre, Guadalupe

Aeropuerto Internacional de Pointe-à-Pitre

latitud: 16-16N, longitud: 061-31W, altitud: 11 m

Observación

El informe se hizo hace 27 minutos, a las 19:30 UTC
Viento 10 kt del sur, variando entre sur-sureste y suroeste
Temperatura 26°C
Humedad 79%
Presión 1014 hPa
Visibilidad 10 km o más

METAR: TFFR 181930Z AUTO 19010KT 150V220 9999 FEW013/// SCT023/// BKN029/// ///TCU 26/22 Q1014 TEMPO 4000 SHRA

Hora: 15:57 (19:57 UTC)

Pronóstico

El informe se hizo hace 2 horas y 57 minutos, a las 17:00 UTC
Pronóstico válido del 18 a las 18 UTC al 19 a las 18 UTC
Viento 10 kt del este-sureste
Visibilidad 10 km o más
Nubes dispersas a una altura de 3000 ft
Temporalmente
del 18 a las 18 UTC al 19 a las 12 UTC
Visibilidad: 4000 m
Nubes dispersas a una altura de 1500 ft, Cumulus congestus.
chaparrones de lluvia

TAF: TFFR 181700Z 1818/1918 12010KT 9999 SCT030 TEMPO 1818/1912 4000 SHRA SCT015TCU

Observaciones y pronósticos meteorológicos de más de 4000 aeropuertos (mensajes METAR y TAF).

Los puntos amarillos y rojos representan las estaciones disponibles.

Ponga el ratón en el punto deseado para ver el nombre de la estación.

Haga clic para ver las observaciones y los pronósticos meteorológicos.

Para cambiar el mapa : haga clic en los botones verdes con una cruz de color negro para hacer un zoom, en el botón verde con un guión para alejar o en las flechas verdes para mapas adyacentes.


METAR-TAF: